Strawn, Texas
Current Conditions -  °F | °C
As of 9:15 AM on Thursday 23 Oct 2014 (Local Time) from KBKD Reporting Station
Haze Haze  
Wind Chill: 67°   Ceiling: 5500
Heat Index: 67°   Visibility: 5mi
Dew Point: 58°   Wind: 5mph
Humidity: 72%   Direction: 160°SSE
Pressure: 30.13"   Gusts: NA
Location:  32.55°N, 98.5°W
Report Text: KBKD 231415Z AUTO 16004KT 5SM HZ OVC055 20/15 A3013 RMK AO2 T01960145
Loading
Personal Weather Stations






























Interactive Weather Map
Tropical Storm Tracking
New forecast layout! Learn more

10-Day Weather Forecast

Advertisements
Track Severe Weather on mobile